Time;durP1;ratioP1;P1;durP2;ratioP2;P2;SDS_P1;SDS_P2;PMS_P1;PMS_P2;Temp;Humidity;BMP_temperature;BMP_pressure;BME280_temperature;BME280_humidity;BME280_pressure;Samples;Min_cycle;Max_cycle;Signal;HPM_P1;HPM_P2
2024/01/26 00:19:59;;;;;;;2.40;1.45;;;;;;;20.87;45.63;100944.72;41251152;28;20042;-71
2024/01/26 00:39:59;;;;;;;1.80;1.30;;;;;;;20.87;45.42;100957.88;41321138;28;20394;-70
2024/01/26 01:00:00;;;;;;;2.38;1.30;;;;;;;20.83;45.57;100959.88;41325705;28;20057;-72
2024/01/26 01:20:04;;;;;;;1.92;1.20;;;;;;;20.81;45.41;100995.13;41266712;28;20054;-71
2024/01/26 01:40:07;;;;;;;2.92;1.40;;;;;;;20.75;45.84;100972.69;41289477;28;20062;-72
2024/01/26 02:00:15;;;;;;;1.90;1.10;;;;;;;20.71;45.43;100979.91;41310389;28;20061;-72
2024/01/26 02:20:17;;;;;;;3.17;1.45;;;;;;;20.68;45.75;100981.91;41209392;28;20066;-72
2024/01/26 02:40:17;;;;;;;1.88;1.15;;;;;;;20.66;45.41;100983.81;41353448;28;20057;-73
2024/01/26 03:00:18;;;;;;;1.75;1.00;;;;;;;20.61;45.46;100984.94;41345039;28;20400;-71
2024/01/26 03:20:19;;;;;;;2.17;1.30;;;;;;;20.61;45.09;100970.94;41346158;28;20427;-71
2024/01/26 03:40:21;;;;;;;2.33;1.25;;;;;;;20.58;45.31;100984.28;41343748;28;20049;-69
2024/01/26 04:00:23;;;;;;;2.55;1.20;;;;;;;20.53;45.36;101036.38;41207877;28;20043;-72
2024/01/26 04:20:23;;;;;;;2.30;1.33;;;;;;;20.51;45.16;101046.16;41197299;28;20042;-71
2024/01/26 04:40:24;;;;;;;1.10;1.00;;;;;;;20.45;45.25;101055.28;41165209;28;20047;-73
2024/01/26 05:00:24;;;;;;;1.67;1.00;;;;;;;20.41;45.11;101057.28;41190326;28;20056;-73
2024/01/26 05:20:25;;;;;;;2.45;1.17;;;;;;;20.36;45.32;101069.88;41155555;28;20518;-72
2024/01/26 05:40:25;;;;;;;3.33;1.42;;;;;;;20.40;45.06;101068.72;41284168;28;20042;-71
2024/01/26 06:00:26;;;;;;;4.25;1.58;;;;;;;20.83;46.00;101077.50;41340233;28;20045;-71
2024/01/26 06:20:31;;;;;;;4.20;1.45;;;;;;;21.22;45.23;101083.69;41368023;28;20058;-68
2024/01/26 06:40:31;;;;;;;14.13;2.28;;;;;;;20.71;39.48;101118.56;41368998;28;20058;-73
2024/01/26 07:00:32;;;;;;;21.38;2.92;;;;;;;21.31;41.13;101122.59;41375961;28;20034;-78
2024/01/26 07:20:36;;;;;;;9.10;3.03;;;;;;;21.41;41.06;101134.22;41427064;28;21452;-77
2024/01/26 07:40:41;;;;;;;9.32;3.00;;;;;;;21.62;41.49;101153.97;41443436;28;20065;-79
2024/01/26 08:00:42;;;;;;;6.50;2.77;;;;;;;21.61;41.46;101157.59;41386452;28;20038;-77
2024/01/26 08:20:42;;;;;;;6.05;2.70;;;;;;;21.71;41.18;101142.81;41410117;28;20501;-78
2024/01/26 08:40:43;;;;;;;6.40;2.60;;;;;;;21.27;35.98;101132.47;41422718;28;20484;-80
2024/01/26 09:00:44;;;;;;;4.57;2.20;;;;;;;21.74;38.71;101148.75;41441663;28;20402;-80
2024/01/26 09:20:48;;;;;;;6.70;2.50;;;;;;;21.84;39.49;101170.03;41448310;28;20042;-79
2024/01/26 09:40:51;;;;;;;7.28;2.22;;;;;;;22.03;39.73;101176.69;41544542;28;20118;-83
2024/01/26 10:00:54;;;;;;;4.10;1.80;;;;;;;22.15;40.71;101175.00;41569349;28;20065;-78
2024/01/26 10:20:57;;;;;;;3.05;2.05;;;;;;;22.30;40.25;101155.50;41502544;28;20052;-79
2024/01/26 10:41:04;;;;;;;3.92;1.63;;;;;;;22.43;40.31;101130.91;41503492;28;20034;-78
2024/01/26 11:01:05;;;;;;;2.25;1.60;;;;;;;22.52;40.39;101135.50;41467120;28;20042;-85
2024/01/26 11:21:06;;;;;;;2.85;1.30;;;;;;;22.68;40.10;101125.56;41303481;28;20133;-80
2024/01/26 11:41:07;;;;;;;2.95;1.40;;;;;;;22.78;40.27;101109.88;41362090;28;20053;-79
2024/01/26 12:01:07;;;;;;;2.83;1.40;;;;;;;22.91;40.09;101099.28;41435550;28;20049;-81
2024/01/26 12:21:08;;;;;;;1.58;1.13;;;;;;;23.03;40.03;101068.44;41439150;28;20072;-82
2024/01/26 12:41:22;;;;;;;2.25;1.30;;;;;;;23.13;40.02;101052.75;41588130;28;20445;-79
2024/01/26 13:01:22;;;;;;;2.35;1.20;;;;;;;23.16;39.96;101023.47;41595354;28;20463;-78
2024/01/26 13:21:23;;;;;;;1.67;1.15;;;;;;;23.10;39.95;101006.28;41749564;28;20037;-76
2024/01/26 13:41:23;;;;;;;8.20;1.50;;;;;;;22.79;39.88;101000.69;41647354;28;20037;-80
2024/01/26 14:01:25;;;;;;;10.70;1.45;;;;;;;22.67;40.35;101007.72;41601397;28;20038;-82
2024/01/26 14:21:26;;;;;;;5.97;1.40;;;;;;;22.47;40.37;101022.38;41620211;28;20046;-80
2024/01/26 14:41:26;;;;;;;14.90;1.48;;;;;;;22.12;39.23;100994.09;41605408;28;20048;-79
2024/01/26 15:01:27;;;;;;;6.78;2.40;;;;;;;22.35;41.33;100967.81;41555684;28;20073;-75
2024/01/26 15:21:28;;;;;;;12.63;3.10;;;;;;;22.20;41.58;100968.00;41607759;28;20122;-75
2024/01/26 15:41:28;;;;;;;5.68;2.42;;;;;;;21.95;38.14;100968.06;41593535;28;20041;-78
2024/01/26 16:01:28;;;;;;;5.85;2.10;;;;;;;21.93;39.90;100956.81;41590292;28;20452;-76
2024/01/26 16:21:32;;;;;;;3.75;2.30;;;;;;;21.90;40.70;100955.22;41635153;28;20041;-79
2024/01/26 16:41:32;;;;;;;3.40;1.92;;;;;;;21.88;41.24;100923.69;41635666;28;20049;-79
2024/01/26 17:01:33;;;;;;;4.53;2.10;;;;;;;21.83;41.96;100893.34;41594962;28;20053;-80
2024/01/26 17:21:35;;;;;;;8.38;2.10;;;;;;;22.10;42.63;100873.84;41596888;28;20042;-76
2024/01/26 17:41:36;;;;;;;14.32;2.83;;;;;;;22.22;43.89;100899.28;41577891;28;20053;-77
2024/01/26 18:01:38;;;;;;;3.25;2.63;;;;;;;22.14;44.34;100886.69;41525504;28;20129;-71
2024/01/26 18:21:38;;;;;;;9.00;3.00;;;;;;;22.01;44.44;100833.16;41510914;28;20037;-72
2024/01/26 18:41:38;;;;;;;10.10;3.08;;;;;;;22.12;44.77;100829.69;41414819;28;20050;-68
2024/01/26 19:01:39;;;;;;;5.72;2.67;;;;;;;21.99;44.75;100795.50;41362603;28;20497;-69
2024/01/26 19:21:40;;;;;;;8.93;2.70;;;;;;;22.02;44.69;100780.31;41470348;28;20049;-68
2024/01/26 19:41:41;;;;;;;5.00;2.97;;;;;;;21.91;45.12;100762.63;41483306;28;20057;-69
2024/01/26 20:01:42;;;;;;;9.10;3.50;;;;;;;21.97;45.54;100747.31;41500602;28;20038;-71
2024/01/26 20:21:43;;;;;;;12.82;3.85;;;;;;;21.52;44.30;100729.50;41474444;28;20045;-74
2024/01/26 20:41:46;;;;;;;8.38;3.63;;;;;;;21.67;45.66;100722.31;41476212;28;20064;-70
2024/01/26 21:01:46;;;;;;;6.40;3.20;;;;;;;21.62;46.43;100729.69;41488532;28;20109;-73
2024/01/26 21:21:47;;;;;;;8.30;3.10;;;;;;;21.61;46.53;100685.88;41494449;28;20054;-74
2024/01/26 21:41:48;;;;;;;5.30;2.80;;;;;;;21.55;46.76;100666.88;41614704;28;20049;-80
2024/01/26 22:01:53;;;;;;;4.28;2.47;;;;;;;21.49;46.68;100633.06;41591889;28;20045;-80
2024/01/26 22:21:54;;;;;;;4.07;2.70;;;;;;;21.49;46.79;100645.44;41514234;28;20065;-73
2024/01/26 22:41:55;;;;;;;2.97;2.25;;;;;;;21.46;46.67;100664.06;41468427;28;20290;-74
2024/01/26 23:01:55;;;;;;;2.72;2.30;;;;;;;21.46;46.67;100669.34;41507782;28;20042;-73
2024/01/26 23:21:56;;;;;;;3.55;2.22;;;;;;;21.43;46.92;100725.75;41518109;28;20037;-74
2024/01/26 23:41:57;;;;;;;3.20;2.25;;;;;;;21.41;46.66;100727.63;41517757;28;20560;-75
